Sioux Falls, SD (57104)

3:07 AM CST on February 22, 2017 (GMT -0600)
MSXFS2 | | Change Station
Active Advisory: Winter Storm Watch

Elev 1292 ft 43.57 °N, 96.71 °W | Updated 4 hours ago

Clear
Clear
41.0 °F
Feels Like 41.0 °F
N
-
Wind Variable Wind from North

Today
High -- | Low -- °F
--% Chance of Precip.
Yesterday
High -- | Low -- °F
Precip. -- in
Pressure 29.64 in
Visibility 10.0 miles
Clouds Clear
Dew Point Not available.
Humidity Not available.
Rainfall in
Snow Depth Not available.
7:14 AM 6:07 PM
Waning Crescent, 19% visible
METAR KFSD 220856Z AUTO 19005KT 10SM CLR 04/03 A2963 RMK AO2 SLP035 60000 T00440028 55009
Pressure 29.64 in
Visibility 10.0 miles
Clouds Clear
Dew Point Not available.
Humidity Not available.
Rainfall in
Snow Depth Not available.
7:14 AM 6:07 PM
Waning Crescent, 19% visible
METAR KFSD 220856Z AUTO 19005KT 10SM CLR 04/03 A2963 RMK AO2 SLP035 60000 T00440028 55009

Get Your Daily Forecast Email!

Thanks for signing up!

Be on the lookout for a verification email in your inbox.

You'll start receiving the daily forecast at 8 AM.

×

10-Day Weather Forecast

Almanac

Astronomy

Feb. 22, 2017 Rise Set
Actual Time
Civil Twilight
Nautical Twilight
Astronomical Twilight
Moon
Length of Visible Light
Length of Day
Tomorrow will be .
, % of the Moon is Illuminated

Today's Extremes

State Highs State Lows

Community

WunderPhotos

Upload Photos

1,962,540 photos uploaded!

WunderBlog® & News

Nearby

Air Quality

  Air Quality AQ Index Pollutant
Not available.

Snow Depth

Station Depth Elevation

Earthquake Activity

City Distance Mag. Time & Date
Minimum magnitude displayed is 2.5.

Coastal Water Temperatures

Place Temperature

Stations

Nearby Weather Stations

Station Location Temp. Windchill Dew Point Humidity Wind Precip. Elev Updated Type
                   

Watches & Warnings

Winter Storm Watch
Issued: 10:11 PM CST Feb. 21, 2017 – National Weather Service

... Winter Storm Watch remains in effect from Thursday evening
through Friday afternoon...

* timing... rain will begin mixing with snow midday Thursday,
then change entirely to snowfall Thursday evening. Snow will
continue into Friday, before gradually tapering off in the
afternoon.

* Accumulations... storm total snow accumulations of 6 to 10
inches are possible.

* Wind and visibility... winds will increase from the north
around 20 to 30 mph on Thursday night and Friday. Visibility
is expected to be reduced to less than a half mile at times
while snow is falling.

Precautionary/preparedness actions...

A Winter Storm Watch means there is a potential for significant
snow... sleet... or ice accumulations that may impact travel.
Continue to monitor the latest forecasts.